Port Saunders, Canada
Current Conditions -  °F | °C
As of 6:00 AM on Monday 24 Nov 2014 (Local Time) from CWDH Reporting Station
Scattered Clouds Scattered Clouds  
Wind Chill: 13°   Ceiling: Unl
Heat Index: 26°   Visibility: 9mi
Dew Point: 12°   Wind: 17mph
Humidity: 55%   Direction: 290°WNW
Pressure: 30.18"   Gusts: NA
Location:  50.65°N, 57.27°W
Report Text: CWDH 240900Z AUTO 29015KT 9SM SCT031 M03/M11 A3018 RMK SLP223 PK WND 29020/// T10331113 WSI/SWOB
Loading
Personal Weather Stations






























Interactive Weather Map New forecast layout! Learn more

10-Day Weather Forecast

Advertisements
Track Severe Weather on mobile